sensor_id;sensor_type;location;lat;lon;timestamp;pressure;altitude;pressure_sealevel;temperature;humidity
6778;BME280;3426;52.244;10.534;2023-02-26T00:00:09;100644.88;;;3.32;59.87
6778;BME280;3426;52.244;10.534;2023-02-26T00:02:41;100643.81;;;3.39;59.30
6778;BME280;3426;52.244;10.534;2023-02-26T00:05:09;100640.19;;;3.47;59.44
6778;BME280;3426;52.244;10.534;2023-02-26T00:07:36;100641.78;;;3.51;58.41
6778;BME280;3426;52.244;10.534;2023-02-26T00:10:04;100642.19;;;3.69;58.29
6778;BME280;3426;52.244;10.534;2023-02-26T00:12:31;100645.94;;;3.25;59.93
6778;BME280;3426;52.244;10.534;2023-02-26T00:14:58;100651.28;;;3.21;59.74
6778;BME280;3426;52.244;10.534;2023-02-26T00:17:44;100645.00;;;3.28;59.21
6778;BME280;3426;52.244;10.534;2023-02-26T00:20:14;100650.09;;;2.97;61.12
6778;BME280;3426;52.244;10.534;2023-02-26T00:22:45;100662.75;;;3.51;59.27
6778;BME280;3426;52.244;10.534;2023-02-26T00:25:11;100658.06;;;3.29;59.62
6778;BME280;3426;52.244;10.534;2023-02-26T00:27:38;100663.75;;;3.45;60.25
6778;BME280;3426;52.244;10.534;2023-02-26T00:30:07;100666.03;;;3.25;60.31
6778;BME280;3426;52.244;10.534;2023-02-26T00:32:34;100666.78;;;3.28;60.67
6778;BME280;3426;52.244;10.534;2023-02-26T00:35:01;100674.44;;;3.37;60.14
6778;BME280;3426;52.244;10.534;2023-02-26T00:42:55;100680.72;;;3.30;60.37
6778;BME280;3426;52.244;10.534;2023-02-26T00:45:22;100698.94;;;3.33;60.90
6778;BME280;3426;52.244;10.534;2023-02-26T00:47:58;100705.47;;;3.15;60.89
6778;BME280;3426;52.244;10.534;2023-02-26T00:50:27;100698.47;;;3.16;62.07
6778;BME280;3426;52.244;10.534;2023-02-26T00:53:12;100708.13;;;3.51;60.78
6778;BME280;3426;52.244;10.534;2023-02-26T00:55:41;100711.81;;;3.05;61.80
6778;BME280;3426;52.244;10.534;2023-02-26T00:58:07;100715.00;;;2.79;63.92
6778;BME280;3426;52.244;10.534;2023-02-26T01:00:34;100714.41;;;3.07;62.71
6778;BME280;3426;52.244;10.534;2023-02-26T01:03:00;100719.50;;;3.13;62.33
6778;BME280;3426;52.244;10.534;2023-02-26T01:05:27;100737.69;;;3.19;62.87
6778;BME280;3426;52.244;10.534;2023-02-26T01:10:24;100716.91;;;3.11;63.45
6778;BME280;3426;52.244;10.534;2023-02-26T01:12:50;100723.09;;;3.46;62.62
6778;BME280;3426;52.244;10.534;2023-02-26T01:15:17;100720.13;;;3.60;62.00
6778;BME280;3426;52.244;10.534;2023-02-26T01:17:55;100721.19;;;3.53;61.82
6778;BME280;3426;52.244;10.534;2023-02-26T01:20:30;100721.53;;;3.37;62.12
6778;BME280;3426;52.244;10.534;2023-02-26T01:23:08;100725.03;;;2.99;64.51
6778;BME280;3426;52.244;10.534;2023-02-26T01:25:47;100726.47;;;2.72;65.14
6778;BME280;3426;52.244;10.534;2023-02-26T01:28:15;100727.81;;;2.91;64.38
6778;BME280;3426;52.244;10.534;2023-02-26T01:30:42;100718.88;;;3.39;63.67
6778;BME280;3426;52.244;10.534;2023-02-26T01:33:27;100723.38;;;3.34;62.78
6778;BME280;3426;52.244;10.534;2023-02-26T01:36:21;100728.94;;;3.56;62.64
6778;BME280;3426;52.244;10.534;2023-02-26T01:39:05;100741.03;;;3.61;62.39
6778;BME280;3426;52.244;10.534;2023-02-26T01:41:54;100733.97;;;3.65;62.02
6778;BME280;3426;52.244;10.534;2023-02-26T01:44:35;100734.13;;;3.59;61.35
6778;BME280;3426;52.244;10.534;2023-02-26T01:47:15;100739.44;;;3.56;62.25
6778;BME280;3426;52.244;10.534;2023-02-26T01:49:43;100754.06;;;3.64;61.74
6778;BME280;3426;52.244;10.534;2023-02-26T01:54:58;100748.84;;;3.63;61.80
6778;BME280;3426;52.244;10.534;2023-02-26T01:57:24;100753.22;;;3.62;61.91
6778;BME280;3426;52.244;10.534;2023-02-26T01:59:52;100761.47;;;3.08;64.28
6778;BME280;3426;52.244;10.534;2023-02-26T02:02:23;100751.84;;;3.48;62.69
6778;BME280;3426;52.244;10.534;2023-02-26T02:04:50;100753.47;;;3.52;62.71
6778;BME280;3426;52.244;10.534;2023-02-26T02:07:18;100765.34;;;3.31;62.45
6778;BME280;3426;52.244;10.534;2023-02-26T02:09:45;100765.56;;;3.57;62.10
6778;BME280;3426;52.244;10.534;2023-02-26T02:12:34;100768.78;;;3.70;61.93
6778;BME280;3426;52.244;10.534;2023-02-26T02:31:54;100790.34;;;3.04;65.16
6778;BME280;3426;52.244;10.534;2023-02-26T02:37:26;100800.38;;;1.88;69.74
6778;BME280;3426;52.244;10.534;2023-02-26T02:40:00;100798.50;;;2.88;66.29
6778;BME280;3426;52.244;10.534;2023-02-26T02:42:40;100788.03;;;2.88;65.05
6778;BME280;3426;52.244;10.534;2023-02-26T02:45:14;100802.13;;;2.81;65.99
6778;BME280;3426;52.244;10.534;2023-02-26T02:47:47;100801.19;;;2.41;68.13
6778;BME280;3426;52.244;10.534;2023-02-26T02:50:24;100807.84;;;2.57;67.15
6778;BME280;3426;52.244;10.534;2023-02-26T02:53:00;100810.06;;;2.78;67.08
6778;BME280;3426;52.244;10.534;2023-02-26T02:55:35;100821.09;;;2.92;64.82
6778;BME280;3426;52.244;10.534;2023-02-26T02:58:06;100813.88;;;3.04;66.29
6778;BME280;3426;52.244;10.534;2023-02-26T03:00:39;100822.38;;;3.15;65.87
6778;BME280;3426;52.244;10.534;2023-02-26T03:05:39;100824.19;;;2.68;67.88
6778;BME280;3426;52.244;10.534;2023-02-26T03:08:10;100828.47;;;2.72;67.01
6778;BME280;3426;52.244;10.534;2023-02-26T03:10:38;100832.28;;;2.56;67.61
6778;BME280;3426;52.244;10.534;2023-02-26T03:13:04;100839.38;;;2.96;66.05
6778;BME280;3426;52.244;10.534;2023-02-26T03:15:37;100841.09;;;1.99;67.86
6778;BME280;3426;52.244;10.534;2023-02-26T03:24:17;100847.44;;;1.83;68.77
6778;BME280;3426;52.244;10.534;2023-02-26T03:27:08;100847.56;;;3.21;65.44
6778;BME280;3426;52.244;10.534;2023-02-26T03:35:16;100855.16;;;2.91;66.17
6778;BME280;3426;52.244;10.534;2023-02-26T03:40:16;100866.31;;;2.02;69.91
6778;BME280;3426;52.244;10.534;2023-02-26T03:42:56;100870.06;;;2.86;67.38
6778;BME280;3426;52.244;10.534;2023-02-26T03:45:32;100868.63;;;3.14;65.61
6778;BME280;3426;52.244;10.534;2023-02-26T03:48:01;100885.44;;;3.03;66.04
6778;BME280;3426;52.244;10.534;2023-02-26T03:50:45;100889.06;;;1.94;69.84
6778;BME280;3426;52.244;10.534;2023-02-26T03:53:17;100888.28;;;2.90;66.45
6778;BME280;3426;52.244;10.534;2023-02-26T03:55:56;100897.16;;;2.32;67.34
6778;BME280;3426;52.244;10.534;2023-02-26T03:58:25;100892.75;;;2.85;67.30
6778;BME280;3426;52.244;10.534;2023-02-26T04:00:57;100896.13;;;2.90;65.38
6778;BME280;3426;52.244;10.534;2023-02-26T04:03:33;100909.44;;;2.27;68.57
6778;BME280;3426;52.244;10.534;2023-02-26T04:06:02;100906.59;;;3.35;64.22
6778;BME280;3426;52.244;10.534;2023-02-26T04:08:29;100915.97;;;3.02;65.76
6778;BME280;3426;52.244;10.534;2023-02-26T04:13:23;100909.31;;;3.71;63.06
6778;BME280;3426;52.244;10.534;2023-02-26T04:15:49;100915.59;;;3.64;63.85
6778;BME280;3426;52.244;10.534;2023-02-26T04:18:16;100911.56;;;3.88;62.94
6778;BME280;3426;52.244;10.534;2023-02-26T04:20:42;100919.41;;;3.04;63.36
6778;BME280;3426;52.244;10.534;2023-02-26T04:23:09;100923.09;;;3.39;64.81
6778;BME280;3426;52.244;10.534;2023-02-26T04:25:36;100927.56;;;3.74;62.98
6778;BME280;3426;52.244;10.534;2023-02-26T04:28:03;100923.72;;;3.92;62.16
6778;BME280;3426;52.244;10.534;2023-02-26T04:30:29;100927.47;;;3.79;63.13
6778;BME280;3426;52.244;10.534;2023-02-26T04:32:55;100936.63;;;3.59;63.02
6778;BME280;3426;52.244;10.534;2023-02-26T04:35:22;100942.59;;;3.24;65.19
6778;BME280;3426;52.244;10.534;2023-02-26T04:37:48;100936.19;;;3.81;62.92
6778;BME280;3426;52.244;10.534;2023-02-26T04:40:15;100951.31;;;3.66;63.92
6778;BME280;3426;52.244;10.534;2023-02-26T04:42:42;100953.03;;;3.69;63.10
6778;BME280;3426;52.244;10.534;2023-02-26T04:45:08;100964.31;;;3.71;63.31
6778;BME280;3426;52.244;10.534;2023-02-26T04:47:35;100958.16;;;3.73;62.99
6778;BME280;3426;52.244;10.534;2023-02-26T04:50:02;100957.06;;;3.84;62.44
6778;BME280;3426;52.244;10.534;2023-02-26T04:52:28;100957.38;;;3.70;62.47
6778;BME280;3426;52.244;10.534;2023-02-26T04:54:54;100963.97;;;3.46;63.38
6778;BME280;3426;52.244;10.534;2023-02-26T04:57:21;100965.00;;;3.81;62.79
6778;BME280;3426;52.244;10.534;2023-02-26T04:59:47;100965.31;;;3.65;62.77
6778;BME280;3426;52.244;10.534;2023-02-26T05:02:14;100966.53;;;3.03;64.62
6778;BME280;3426;52.244;10.534;2023-02-26T05:04:40;100971.03;;;3.42;64.33
6778;BME280;3426;52.244;10.534;2023-02-26T05:07:07;100972.09;;;3.32;65.05
6778;BME280;3426;52.244;10.534;2023-02-26T05:09:33;100963.16;;;3.42;63.88
6778;BME280;3426;52.244;10.534;2023-02-26T05:12:00;100973.69;;;3.39;63.92
6778;BME280;3426;52.244;10.534;2023-02-26T05:14:26;100976.09;;;3.50;63.18
6778;BME280;3426;52.244;10.534;2023-02-26T05:16:53;100985.16;;;3.77;61.57
6778;BME280;3426;52.244;10.534;2023-02-26T05:19:19;100982.06;;;3.57;62.38
6778;BME280;3426;52.244;10.534;2023-02-26T05:21:46;100983.81;;;3.58;63.35
6778;BME280;3426;52.244;10.534;2023-02-26T05:24:14;100986.34;;;4.03;61.09
6778;BME280;3426;52.244;10.534;2023-02-26T05:26:41;100997.59;;;3.21;63.34
6778;BME280;3426;52.244;10.534;2023-02-26T05:29:07;101001.94;;;3.67;62.31
6778;BME280;3426;52.244;10.534;2023-02-26T05:31:34;101010.34;;;3.39;62.27
6778;BME280;3426;52.244;10.534;2023-02-26T05:34:00;100999.13;;;3.33;62.62
6778;BME280;3426;52.244;10.534;2023-02-26T05:36:27;101010.50;;;3.32;62.98
6778;BME280;3426;52.244;10.534;2023-02-26T05:38:53;101011.81;;;3.08;63.53
6778;BME280;3426;52.244;10.534;2023-02-26T05:41:20;101009.59;;;2.83;64.53
6778;BME280;3426;52.244;10.534;2023-02-26T05:43:46;101013.00;;;2.88;64.03
6778;BME280;3426;52.244;10.534;2023-02-26T05:46:13;101024.31;;;3.38;62.17
6778;BME280;3426;52.244;10.534;2023-02-26T05:48:39;101027.94;;;2.82;64.32
6778;BME280;3426;52.244;10.534;2023-02-26T05:51:06;101031.31;;;2.88;64.05
6778;BME280;3426;52.244;10.534;2023-02-26T05:53:32;101044.56;;;3.29;62.44
6778;BME280;3426;52.244;10.534;2023-02-26T05:55:58;101049.47;;;2.98;62.87
6778;BME280;3426;52.244;10.534;2023-02-26T05:58:25;101056.19;;;2.60;63.90
6778;BME280;3426;52.244;10.534;2023-02-26T06:00:51;101064.97;;;1.90;66.12
6778;BME280;3426;52.244;10.534;2023-02-26T06:03:18;101067.88;;;2.34;64.69
6778;BME280;3426;52.244;10.534;2023-02-26T06:05:44;101070.19;;;2.54;64.52
6778;BME280;3426;52.244;10.534;2023-02-26T06:08:12;101076.91;;;2.74;64.30
6778;BME280;3426;52.244;10.534;2023-02-26T06:10:41;101081.97;;;2.84;62.26
6778;BME280;3426;52.244;10.534;2023-02-26T06:13:08;101084.09;;;1.93;66.72
6778;BME280;3426;52.244;10.534;2023-02-26T06:15:34;101091.56;;;2.24;66.08
6778;BME280;3426;52.244;10.534;2023-02-26T06:18:01;101095.84;;;2.89;62.52
6778;BME280;3426;52.244;10.534;2023-02-26T06:20:27;101097.06;;;2.67;63.65
6778;BME280;3426;52.244;10.534;2023-02-26T06:22:54;101102.13;;;2.76;63.47
6778;BME280;3426;52.244;10.534;2023-02-26T06:25:20;101100.94;;;2.97;62.62
6778;BME280;3426;52.244;10.534;2023-02-26T06:27:47;101105.94;;;3.12;61.65
6778;BME280;3426;52.244;10.534;2023-02-26T06:30:13;101111.25;;;2.48;63.23
6778;BME280;3426;52.244;10.534;2023-02-26T06:32:39;101116.94;;;2.14;63.63
6778;BME280;3426;52.244;10.534;2023-02-26T06:35:06;101119.63;;;3.28;61.57
6778;BME280;3426;52.244;10.534;2023-02-26T06:37:33;101129.97;;;2.80;62.25
6778;BME280;3426;52.244;10.534;2023-02-26T06:39:59;101131.69;;;3.37;61.22
6778;BME280;3426;52.244;10.534;2023-02-26T06:42:26;101124.53;;;3.48;60.35
6778;BME280;3426;52.244;10.534;2023-02-26T06:44:52;101137.22;;;3.20;61.06
6778;BME280;3426;52.244;10.534;2023-02-26T06:47:19;101145.53;;;3.43;60.70
6778;BME280;3426;52.244;10.534;2023-02-26T06:49:45;101142.72;;;3.03;62.12
6778;BME280;3426;52.244;10.534;2023-02-26T06:52:12;101144.78;;;3.86;59.95
6778;BME280;3426;52.244;10.534;2023-02-26T06:54:38;101145.38;;;4.01;59.34
6778;BME280;3426;52.244;10.534;2023-02-26T06:57:05;101147.53;;;4.23;58.40
6778;BME280;3426;52.244;10.534;2023-02-26T06:59:31;101150.56;;;4.47;56.74
6778;BME280;3426;52.244;10.534;2023-02-26T07:01:58;101152.09;;;4.57;55.88
6778;BME280;3426;52.244;10.534;2023-02-26T07:04:24;101156.88;;;3.93;56.80
6778;BME280;3426;52.244;10.534;2023-02-26T07:06:51;101167.38;;;4.37;55.61
6778;BME280;3426;52.244;10.534;2023-02-26T07:09:17;101174.00;;;4.11;57.38
6778;BME280;3426;52.244;10.534;2023-02-26T07:11:47;101172.38;;;4.89;55.75
6778;BME280;3426;52.244;10.534;2023-02-26T07:14:13;101173.53;;;4.76;54.32
6778;BME280;3426;52.244;10.534;2023-02-26T07:16:40;101182.97;;;4.44;56.05
6778;BME280;3426;52.244;10.534;2023-02-26T07:19:06;101187.13;;;5.32;53.11
6778;BME280;3426;52.244;10.534;2023-02-26T07:21:33;101192.56;;;4.86;52.83
6778;BME280;3426;52.244;10.534;2023-02-26T07:23:59;101192.06;;;3.79;53.62
6778;BME280;3426;52.244;10.534;2023-02-26T07:26:26;101205.84;;;4.36;52.97
6778;BME280;3426;52.244;10.534;2023-02-26T07:28:53;101212.38;;;4.59;52.55
6778;BME280;3426;52.244;10.534;2023-02-26T07:31:19;101217.78;;;4.06;53.52
6778;BME280;3426;52.244;10.534;2023-02-26T07:33:46;101223.59;;;3.20;55.67
6778;BME280;3426;52.244;10.534;2023-02-26T07:36:12;101223.88;;;4.93;52.81
6778;BME280;3426;52.244;10.534;2023-02-26T07:38:39;101229.53;;;5.52;50.36
6778;BME280;3426;52.244;10.534;2023-02-26T07:41:05;101228.41;;;4.88;51.47
6778;BME280;3426;52.244;10.534;2023-02-26T07:43:32;101226.00;;;5.53;50.69
6778;BME280;3426;52.244;10.534;2023-02-26T07:45:58;101233.59;;;4.90;50.02
6778;BME280;3426;52.244;10.534;2023-02-26T07:48:25;101238.03;;;4.86;51.88
6778;BME280;3426;52.244;10.534;2023-02-26T07:50:52;101241.28;;;4.11;51.63
6778;BME280;3426;52.244;10.534;2023-02-26T07:53:19;101241.63;;;5.59;50.11
6778;BME280;3426;52.244;10.534;2023-02-26T07:55:46;101250.81;;;5.77;49.36
6778;BME280;3426;52.244;10.534;2023-02-26T07:58:13;101252.78;;;5.69;48.49
6778;BME280;3426;52.244;10.534;2023-02-26T08:00:39;101263.09;;;5.77;47.61
6778;BME280;3426;52.244;10.534;2023-02-26T08:03:06;101264.97;;;4.52;49.43
6778;BME280;3426;52.244;10.534;2023-02-26T08:05:32;101267.19;;;5.53;47.66
6778;BME280;3426;52.244;10.534;2023-02-26T08:08:00;101265.22;;;6.63;47.63
6778;BME280;3426;52.244;10.534;2023-02-26T08:10:27;101260.84;;;7.51;44.65
6778;BME280;3426;52.244;10.534;2023-02-26T08:12:54;101275.97;;;5.88;47.67
6778;BME280;3426;52.244;10.534;2023-02-26T08:15:20;101265.88;;;7.01;45.20
6778;BME280;3426;52.244;10.534;2023-02-26T08:17:47;101273.94;;;5.63;47.03
6778;BME280;3426;52.244;10.534;2023-02-26T08:20:13;101266.97;;;7.24;44.47
6778;BME280;3426;52.244;10.534;2023-02-26T08:22:41;101273.31;;;6.25;46.79
6778;BME280;3426;52.244;10.534;2023-02-26T08:25:08;101276.06;;;7.96;43.76
6778;BME280;3426;52.244;10.534;2023-02-26T08:27:34;101282.03;;;6.89;44.05
6778;BME280;3426;52.244;10.534;2023-02-26T08:30:02;101280.13;;;8.81;40.26
6778;BME280;3426;52.244;10.534;2023-02-26T08:32:28;101283.34;;;8.14;41.14
6778;BME280;3426;52.244;10.534;2023-02-26T08:34:55;101287.97;;;8.08;41.30
6778;BME280;3426;52.244;10.534;2023-02-26T08:37:21;101302.00;;;7.55;41.38
6778;BME280;3426;52.244;10.534;2023-02-26T08:39:50;101298.94;;;7.11;41.77
6778;BME280;3426;52.244;10.534;2023-02-26T08:42:16;101290.56;;;9.97;38.00
6778;BME280;3426;52.244;10.534;2023-02-26T08:44:46;101292.34;;;10.59;37.26
6778;BME280;3426;52.244;10.534;2023-02-26T08:47:13;101306.78;;;9.22;38.88
6778;BME280;3426;52.244;10.534;2023-02-26T08:49:49;101309.97;;;9.08;39.52
6778;BME280;3426;52.244;10.534;2023-02-26T08:52:16;101312.94;;;8.24;40.00
6778;BME280;3426;52.244;10.534;2023-02-26T08:54:42;101302.69;;;10.45;37.72
6778;BME280;3426;52.244;10.534;2023-02-26T08:57:09;101318.25;;;8.74;40.25
6778;BME280;3426;52.244;10.534;2023-02-26T08:59:35;101321.97;;;8.17;41.21
6778;BME280;3426;52.244;10.534;2023-02-26T09:02:02;101318.78;;;10.40;38.40
6778;BME280;3426;52.244;10.534;2023-02-26T09:04:28;101326.38;;;9.62;37.65
6778;BME280;3426;52.244;10.534;2023-02-26T09:06:56;101334.59;;;9.98;38.08
6778;BME280;3426;52.244;10.534;2023-02-26T09:09:23;101344.94;;;7.59;41.71
6778;BME280;3426;52.244;10.534;2023-02-26T09:11:49;101339.91;;;6.92;43.00
6778;BME280;3426;52.244;10.534;2023-02-26T09:14:16;101337.03;;;8.90;40.06
6778;BME280;3426;52.244;10.534;2023-02-26T09:16:42;101334.00;;;9.00;40.08
6778;BME280;3426;52.244;10.534;2023-02-26T09:19:09;101350.50;;;7.78;40.75
6778;BME280;3426;52.244;10.534;2023-02-26T09:21:36;101335.56;;;10.80;37.80
6778;BME280;3426;52.244;10.534;2023-02-26T09:24:03;101344.63;;;12.25;33.78
6778;BME280;3426;52.244;10.534;2023-02-26T09:26:29;101348.63;;;12.16;35.14
6778;BME280;3426;52.244;10.534;2023-02-26T09:28:56;101341.22;;;12.40;33.06
6778;BME280;3426;52.244;10.534;2023-02-26T09:31:22;101352.88;;;8.90;38.33
6778;BME280;3426;52.244;10.534;2023-02-26T09:33:49;101360.34;;;7.99;41.53
6778;BME280;3426;52.244;10.534;2023-02-26T09:36:15;101378.03;;;7.39;41.73
6778;BME280;3426;52.244;10.534;2023-02-26T09:38:42;101376.03;;;6.85;41.84
6778;BME280;3426;52.244;10.534;2023-02-26T09:41:18;101370.63;;;7.23;40.70
6778;BME280;3426;52.244;10.534;2023-02-26T09:46:44;101375.69;;;6.67;43.11
6778;BME280;3426;52.244;10.534;2023-02-26T09:52:02;101378.94;;;7.68;40.70
6778;BME280;3426;52.244;10.534;2023-02-26T09:54:34;101385.88;;;6.10;44.93
6778;BME280;3426;52.244;10.534;2023-02-26T09:57:03;101387.59;;;6.47;43.15
6778;BME280;3426;52.244;10.534;2023-02-26T09:59:32;101380.84;;;7.91;42.31
6778;BME280;3426;52.244;10.534;2023-02-26T10:02:20;101386.59;;;6.53;42.95
6778;BME280;3426;52.244;10.534;2023-02-26T10:05:12;101391.31;;;4.76;46.77
6778;BME280;3426;52.244;10.534;2023-02-26T10:07:52;101388.44;;;6.12;43.97
6778;BME280;3426;52.244;10.534;2023-02-26T10:13:44;101383.13;;;7.46;41.08
6778;BME280;3426;52.244;10.534;2023-02-26T10:16:26;101390.56;;;6.68;42.88
6778;BME280;3426;52.244;10.534;2023-02-26T10:19:01;101390.47;;;7.03;41.12
6778;BME280;3426;52.244;10.534;2023-02-26T10:24:14;101408.81;;;4.77;44.66
6778;BME280;3426;52.244;10.534;2023-02-26T10:26:49;101412.31;;;6.42;42.22
6778;BME280;3426;52.244;10.534;2023-02-26T10:29:39;101412.63;;;5.07;44.45
6778;BME280;3426;52.244;10.534;2023-02-26T10:32:40;101416.75;;;5.61;43.84
6778;BME280;3426;52.244;10.534;2023-02-26T10:35:14;101410.41;;;5.30;43.44
6778;BME280;3426;52.244;10.534;2023-02-26T10:38:01;101424.13;;;5.43;43.33
6778;BME280;3426;52.244;10.534;2023-02-26T10:40:33;101414.78;;;5.72;43.30
6778;BME280;3426;52.244;10.534;2023-02-26T10:50:52;101440.72;;;5.87;42.79
6778;BME280;3426;52.244;10.534;2023-02-26T10:53:20;101428.06;;;6.77;42.28
6778;BME280;3426;52.244;10.534;2023-02-26T10:55:51;101434.78;;;6.18;43.09
6778;BME280;3426;52.244;10.534;2023-02-26T10:58:23;101436.22;;;5.94;43.38
6778;BME280;3426;52.244;10.534;2023-02-26T11:00:52;101435.28;;;6.69;42.13
6778;BME280;3426;52.244;10.534;2023-02-26T11:03:33;101438.59;;;7.10;41.10
6778;BME280;3426;52.244;10.534;2023-02-26T11:06:01;101447.53;;;6.36;42.15
6778;BME280;3426;52.244;10.534;2023-02-26T11:08:41;101448.84;;;5.35;42.77
6778;BME280;3426;52.244;10.534;2023-02-26T11:11:08;101449.94;;;4.75;43.53
6778;BME280;3426;52.244;10.534;2023-02-26T11:13:37;101444.84;;;5.15;41.97
6778;BME280;3426;52.244;10.534;2023-02-26T11:16:08;101437.03;;;6.69;40.54
6778;BME280;3426;52.244;10.534;2023-02-26T11:18:47;101435.09;;;7.09;41.03
6778;BME280;3426;52.244;10.534;2023-02-26T11:21:27;101453.97;;;4.96;42.74
6778;BME280;3426;52.244;10.534;2023-02-26T11:24:08;101451.50;;;5.75;41.08
6778;BME280;3426;52.244;10.534;2023-02-26T11:26:48;101454.94;;;5.37;42.24
6778;BME280;3426;52.244;10.534;2023-02-26T11:29:18;101457.31;;;5.91;41.74
6778;BME280;3426;52.244;10.534;2023-02-26T11:31:52;101455.28;;;6.42;40.94
6778;BME280;3426;52.244;10.534;2023-02-26T11:34:22;101457.13;;;5.13;42.97
6778;BME280;3426;52.244;10.534;2023-02-26T11:36:52;101465.28;;;6.26;41.01
6778;BME280;3426;52.244;10.534;2023-02-26T11:39:23;101460.69;;;5.54;40.09
6778;BME280;3426;52.244;10.534;2023-02-26T11:41:54;101457.81;;;5.24;41.52
6778;BME280;3426;52.244;10.534;2023-02-26T11:44:34;101468.50;;;6.00;40.15
6778;BME280;3426;52.244;10.534;2023-02-26T11:47:04;101456.22;;;5.59;40.72
6778;BME280;3426;52.244;10.534;2023-02-26T11:49:32;101460.22;;;4.89;42.28
6778;BME280;3426;52.244;10.534;2023-02-26T11:54:49;101450.94;;;6.75;40.05
6778;BME280;3426;52.244;10.534;2023-02-26T11:57:19;101450.16;;;5.55;40.75
6778;BME280;3426;52.244;10.534;2023-02-26T11:59:50;101457.81;;;4.75;41.96
6778;BME280;3426;52.244;10.534;2023-02-26T12:02:19;101447.16;;;5.72;40.38
6778;BME280;3426;52.244;10.534;2023-02-26T12:04:50;101454.16;;;4.85;40.07
6778;BME280;3426;52.244;10.534;2023-02-26T12:07:18;101469.22;;;4.74;40.80
6778;BME280;3426;52.244;10.534;2023-02-26T12:09:46;101454.38;;;5.64;39.62
6778;BME280;3426;52.244;10.534;2023-02-26T12:23:40;101457.50;;;4.93;40.61
6778;BME280;3426;52.244;10.534;2023-02-26T12:26:33;101450.78;;;6.80;38.43
6778;BME280;3426;52.244;10.534;2023-02-26T12:42:16;101462.06;;;6.51;36.32
6778;BME280;3426;52.244;10.534;2023-02-26T12:53:20;101472.84;;;6.03;37.23
6778;BME280;3426;52.244;10.534;2023-02-26T13:04:07;101470.47;;;5.47;36.46
6778;BME280;3426;52.244;10.534;2023-02-26T13:07:05;101474.41;;;4.78;38.03
6778;BME280;3426;52.244;10.534;2023-02-26T13:10:02;101477.38;;;6.33;36.82
6778;BME280;3426;52.244;10.534;2023-02-26T13:12:59;101461.69;;;5.48;37.89
6778;BME280;3426;52.244;10.534;2023-02-26T13:18:03;101463.00;;;5.26;38.47
6778;BME280;3426;52.244;10.534;2023-02-26T13:20:36;101466.69;;;5.62;38.18
6778;BME280;3426;52.244;10.534;2023-02-26T13:23:29;101463.25;;;5.14;38.25
6778;BME280;3426;52.244;10.534;2023-02-26T13:26:00;101468.03;;;4.92;39.35
6778;BME280;3426;52.244;10.534;2023-02-26T13:28:51;101465.59;;;6.13;37.31
6778;BME280;3426;52.244;10.534;2023-02-26T13:31:24;101464.03;;;4.69;40.31
6778;BME280;3426;52.244;10.534;2023-02-26T13:33:54;101463.38;;;5.94;37.84
6778;BME280;3426;52.244;10.534;2023-02-26T13:36:24;101462.97;;;5.71;38.01
6778;BME280;3426;52.244;10.534;2023-02-26T13:52:21;101460.69;;;5.97;37.46
6778;BME280;3426;52.244;10.534;2023-02-26T13:54:47;101457.25;;;5.52;38.43
6778;BME280;3426;52.244;10.534;2023-02-26T13:57:34;101463.63;;;6.94;36.33
6778;BME280;3426;52.244;10.534;2023-02-26T14:02:50;101454.91;;;6.90;36.81
6778;BME280;3426;52.244;10.534;2023-02-26T14:05:34;101460.69;;;5.97;38.00
6778;BME280;3426;52.244;10.534;2023-02-26T14:13:40;101461.31;;;6.08;38.40
6778;BME280;3426;52.244;10.534;2023-02-26T14:16:12;101464.63;;;6.54;37.64
6778;BME280;3426;52.244;10.534;2023-02-26T14:24:00;101458.81;;;5.62;38.21
6778;BME280;3426;52.244;10.534;2023-02-26T14:26:31;101463.47;;;6.66;37.48
6778;BME280;3426;52.244;10.534;2023-02-26T14:34:47;101465.84;;;6.02;38.36
6778;BME280;3426;52.244;10.534;2023-02-26T14:37:19;101467.88;;;5.88;38.69
6778;BME280;3426;52.244;10.534;2023-02-26T14:40:19;101464.81;;;6.09;37.82
6778;BME280;3426;52.244;10.534;2023-02-26T14:42:51;101470.47;;;5.89;39.15
6778;BME280;3426;52.244;10.534;2023-02-26T14:45:28;101480.44;;;6.88;38.12
6778;BME280;3426;52.244;10.534;2023-02-26T14:47:58;101479.13;;;6.70;37.98
6778;BME280;3426;52.244;10.534;2023-02-26T14:50:30;101483.13;;;6.85;37.35
6778;BME280;3426;52.244;10.534;2023-02-26T14:53:18;101483.50;;;6.71;37.99
6778;BME280;3426;52.244;10.534;2023-02-26T15:01:45;101494.25;;;5.84;38.72
6778;BME280;3426;52.244;10.534;2023-02-26T15:12:50;101494.66;;;6.06;39.37
6778;BME280;3426;52.244;10.534;2023-02-26T15:15:35;101504.78;;;6.25;39.76
6778;BME280;3426;52.244;10.534;2023-02-26T15:18:25;101503.06;;;6.95;38.19
6778;BME280;3426;52.244;10.534;2023-02-26T15:23:42;101509.28;;;6.20;38.98
6778;BME280;3426;52.244;10.534;2023-02-26T15:26:16;101516.81;;;7.06;38.12
6778;BME280;3426;52.244;10.534;2023-02-26T15:28:44;101513.06;;;7.16;37.85
6778;BME280;3426;52.244;10.534;2023-02-26T15:31:11;101512.41;;;6.73;38.92
6778;BME280;3426;52.244;10.534;2023-02-26T15:33:39;101513.50;;;6.27;38.46
6778;BME280;3426;52.244;10.534;2023-02-26T15:36:11;101503.88;;;5.84;39.14
6778;BME280;3426;52.244;10.534;2023-02-26T15:38:45;101509.00;;;6.32;38.93
6778;BME280;3426;52.244;10.534;2023-02-26T15:41:12;101515.00;;;5.98;39.25
6778;BME280;3426;52.244;10.534;2023-02-26T15:43:45;101508.41;;;6.56;38.55
6778;BME280;3426;52.244;10.534;2023-02-26T15:46:13;101517.78;;;5.89;38.16
6778;BME280;3426;52.244;10.534;2023-02-26T15:48:41;101522.94;;;6.73;37.22
6778;BME280;3426;52.244;10.534;2023-02-26T15:51:10;101524.06;;;5.82;38.10
6778;BME280;3426;52.244;10.534;2023-02-26T15:53:49;101520.84;;;6.11;38.58
6778;BME280;3426;52.244;10.534;2023-02-26T15:56:22;101529.09;;;6.36;37.80
6778;BME280;3426;52.244;10.534;2023-02-26T15:58:54;101529.53;;;5.71;38.46
6778;BME280;3426;52.244;10.534;2023-02-26T16:01:23;101523.16;;;6.63;37.29
6778;BME280;3426;52.244;10.534;2023-02-26T16:03:51;101528.50;;;6.96;37.25
6778;BME280;3426;52.244;10.534;2023-02-26T16:06:30;101527.06;;;6.08;38.46
6778;BME280;3426;52.244;10.534;2023-02-26T16:08:58;101526.97;;;6.50;38.00
6778;BME280;3426;52.244;10.534;2023-02-26T16:11:32;101527.94;;;6.48;38.32
6778;BME280;3426;52.244;10.534;2023-02-26T16:14:00;101531.63;;;6.76;38.25